Palm Springs, CA

3:12 PM PDT on August 25, 2016 (GMT -0700)
North Palm Springs | | Change Station

Elev 636 ft 33.86 °N, 116.55 °W | Updated 23 seconds ago

Scattered Clouds
Scattered Clouds
104.4 °F
Feels Like 104 °F
N
1.7
Wind Variable Wind from North

Today
High -- | Low -- °F
--% Chance of Precip.
Yesterday
High -- | Low -- °F
Precip. -- in
Pressure 29.77 in
Visibility 10.0 miles
Clouds Scattered Clouds 16000 ft
Heat Index 104 °F
Dew Point 57 °F
Humidity 21%
Rainfall Not available.
Snow Depth Not available.
6:15 AM 7:20 PM
Last Quarter, 41% visible
METAR KPSP 252153Z VRB06KT 10SM SCT160 39/10 A2978 RMK AO2 SLP080 T03940100
Pressure 29.77 in
Visibility 10.0 miles
Clouds Scattered Clouds 16000 ft
Heat Index 104 °F
Dew Point 57 °F
Humidity 21%
Rainfall Not available.
Snow Depth Not available.
6:15 AM 7:20 PM
Last Quarter, 41% visible
METAR KPSP 252153Z VRB06KT 10SM SCT160 39/10 A2978 RMK AO2 SLP080 T03940100
A tropical disturbance pushing toward the Bahamas, is expected to develop into a tropical depression or storm, and will likely target Florida and the Gulf Coast this weekend into next week.

Right now, the disturbance remains a broad area of low pressure pushing through the Dominican Republic and Haiti, headed toward the southeast Bahamas. Rainfall totals over 3 inches (with locally higher amounts) are expected in HispaƱiola, particularly over elevated terrain.

10-Day Weather Forecast

Almanac

Astronomy

Aug. 25, 2016 Rise Set
Actual Time
Civil Twilight
Nautical Twilight
Astronomical Twilight
Moon
Length of Visible Light
Length of Day
Tomorrow will be .
, % of the Moon is Illuminated

Today's Extremes

State Highs State Lows

Community

WunderPhotos

Upload Photos

1,934,951 photos uploaded!

WunderBlog® & News

Nearby

Air Quality

  Air Quality AQ Index Pollutant
Not available.

Snow Depth

Station Depth Elevation

Earthquake Activity

City Distance Mag. Time & Date
Minimum magnitude displayed is 2.5.

Coastal Water Temperatures

Place Temperature

Stations

Nearby Weather Stations

Station Location Temp. Windchill Dew Point Humidity Wind Precip. Elev Updated Type
                   

Watches & Warnings

There are currently no watches in effect.